sensor_id;sensor_type;location;lat;lon;timestamp;pressure;altitude;pressure_sealevel;temperature;humidity
56668;BME280;42542;48.360;10.958;2023-01-27T00:00:09;96208.06;;;-1.34;94.10
56668;BME280;42542;48.360;10.958;2023-01-27T00:03:14;96207.31;;;-1.36;94.09
56668;BME280;42542;48.360;10.958;2023-01-27T00:06:16;96210.59;;;-1.32;94.37
56668;BME280;42542;48.360;10.958;2023-01-27T00:09:18;96210.50;;;-1.31;94.33
56668;BME280;42542;48.360;10.958;2023-01-27T00:12:22;96204.34;;;-1.30;94.33
56668;BME280;42542;48.360;10.958;2023-01-27T00:15:42;96202.72;;;-1.32;93.90
56668;BME280;42542;48.360;10.958;2023-01-27T00:18:44;96197.41;;;-1.31;94.30
56668;BME280;42542;48.360;10.958;2023-01-27T00:21:46;96191.97;;;-1.28;94.29
56668;BME280;42542;48.360;10.958;2023-01-27T00:25:06;96189.44;;;-1.29;94.21
56668;BME280;42542;48.360;10.958;2023-01-27T00:28:08;96188.69;;;-1.31;94.34
56668;BME280;42542;48.360;10.958;2023-01-27T00:31:13;96178.13;;;-1.30;93.97
56668;BME280;42542;48.360;10.958;2023-01-27T00:34:34;96180.63;;;-1.28;94.75
56668;BME280;42542;48.360;10.958;2023-01-27T00:37:35;96174.44;;;-1.27;94.67
56668;BME280;42542;48.360;10.958;2023-01-27T00:40:40;96165.75;;;-1.28;94.54
56668;BME280;42542;48.360;10.958;2023-01-27T00:44:02;96176.16;;;-1.26;94.53
56668;BME280;42542;48.360;10.958;2023-01-27T00:47:05;96179.78;;;-1.29;94.23
56668;BME280;42542;48.360;10.958;2023-01-27T00:50:07;96180.63;;;-1.28;94.05
56668;BME280;42542;48.360;10.958;2023-01-27T00:53:09;96192.81;;;-1.27;93.85
56668;BME280;42542;48.360;10.958;2023-01-27T00:56:11;96195.63;;;-1.30;93.94
56668;BME280;42542;48.360;10.958;2023-01-27T00:59:13;96204.13;;;-1.27;93.60
56668;BME280;42542;48.360;10.958;2023-01-27T01:02:14;96211.94;;;-1.25;94.51
56668;BME280;42542;48.360;10.958;2023-01-27T01:05:16;96219.88;;;-1.27;94.58
56668;BME280;42542;48.360;10.958;2023-01-27T01:08:17;96217.25;;;-1.27;94.77
56668;BME280;42542;48.360;10.958;2023-01-27T01:11:20;96216.50;;;-1.29;94.54
56668;BME280;42542;48.360;10.958;2023-01-27T01:14:21;96213.88;;;-1.29;94.24
56668;BME280;42542;48.360;10.958;2023-01-27T01:17:23;96217.47;;;-1.30;94.25
56668;BME280;42542;48.360;10.958;2023-01-27T01:20:24;96207.78;;;-1.29;94.33
56668;BME280;42542;48.360;10.958;2023-01-27T01:23:26;96212.09;;;-1.28;94.92
56668;BME280;42542;48.360;10.958;2023-01-27T01:26:29;96214.84;;;-1.30;94.54
56668;BME280;42542;48.360;10.958;2023-01-27T01:29:30;96212.00;;;-1.27;94.59
56668;BME280;42542;48.360;10.958;2023-01-27T01:32:33;96205.28;;;-1.31;94.59
56668;BME280;42542;48.360;10.958;2023-01-27T01:35:36;96204.06;;;-1.25;95.13
56668;BME280;42542;48.360;10.958;2023-01-27T01:38:38;96204.13;;;-1.27;94.69
56668;BME280;42542;48.360;10.958;2023-01-27T01:41:40;96205.00;;;-1.26;94.68
56668;BME280;42542;48.360;10.958;2023-01-27T01:44:43;96196.28;;;-1.27;94.65
56668;BME280;42542;48.360;10.958;2023-01-27T01:47:45;96204.81;;;-1.23;94.85
56668;BME280;42542;48.360;10.958;2023-01-27T01:50:57;96196.94;;;-1.23;94.95
56668;BME280;42542;48.360;10.958;2023-01-27T01:57:20;96199.66;;;-1.25;94.63
56668;BME280;42542;48.360;10.958;2023-01-27T02:00:24;96191.03;;;-1.27;94.67
56668;BME280;42542;48.360;10.958;2023-01-27T02:03:27;96194.34;;;-1.23;94.96
56668;BME280;42542;48.360;10.958;2023-01-27T02:06:39;96189.94;;;-1.23;94.75
56668;BME280;42542;48.360;10.958;2023-01-27T02:09:43;96187.09;;;-1.20;94.58
56668;BME280;42542;48.360;10.958;2023-01-27T02:12:44;96180.94;;;-1.19;94.68
56668;BME280;42542;48.360;10.958;2023-01-27T02:15:46;96171.56;;;-1.23;95.06
56668;BME280;42542;48.360;10.958;2023-01-27T02:18:48;96183.56;;;-1.19;94.92
56668;BME280;42542;48.360;10.958;2023-01-27T02:21:51;96186.09;;;-1.17;94.88
56668;BME280;42542;48.360;10.958;2023-01-27T02:25:01;96192.06;;;-1.15;95.12
56668;BME280;42542;48.360;10.958;2023-01-27T02:28:07;96187.88;;;-1.17;94.98
56668;BME280;42542;48.360;10.958;2023-01-27T02:31:09;96193.75;;;-1.14;95.58
56668;BME280;42542;48.360;10.958;2023-01-27T02:34:15;96183.47;;;-1.17;94.89
56668;BME280;42542;48.360;10.958;2023-01-27T02:37:19;96191.34;;;-1.17;95.25
56668;BME280;42542;48.360;10.958;2023-01-27T02:40:21;96190.41;;;-1.16;95.41
56668;BME280;42542;48.360;10.958;2023-01-27T02:43:23;96187.88;;;-1.17;95.01
56668;BME280;42542;48.360;10.958;2023-01-27T02:46:25;96184.69;;;-1.23;95.62
56668;BME280;42542;48.360;10.958;2023-01-27T02:49:27;96174.94;;;-1.21;95.08
56668;BME280;42542;48.360;10.958;2023-01-27T02:52:29;96169.78;;;-1.22;95.36
56668;BME280;42542;48.360;10.958;2023-01-27T02:55:31;96164.34;;;-1.19;95.46
56668;BME280;42542;48.360;10.958;2023-01-27T02:58:33;96163.59;;;-1.21;95.03
56668;BME280;42542;48.360;10.958;2023-01-27T03:01:44;96173.22;;;-1.22;94.73
56668;BME280;42542;48.360;10.958;2023-01-27T03:04:46;96177.63;;;-1.22;95.00
56668;BME280;42542;48.360;10.958;2023-01-27T03:07:49;96180.25;;;-1.22;94.73
56668;BME280;42542;48.360;10.958;2023-01-27T03:10:53;96180.00;;;-1.17;95.21
56668;BME280;42542;48.360;10.958;2023-01-27T03:13:55;96171.19;;;-1.16;94.87
56668;BME280;42542;48.360;10.958;2023-01-27T03:16:58;96163.34;;;-1.16;94.55
56668;BME280;42542;48.360;10.958;2023-01-27T03:20:19;96165.84;;;-1.15;94.80
56668;BME280;42542;48.360;10.958;2023-01-27T03:23:21;96165.03;;;-1.15;94.81
56668;BME280;42542;48.360;10.958;2023-01-27T03:26:25;96158.09;;;-1.16;94.86
56668;BME280;42542;48.360;10.958;2023-01-27T03:29:31;96163.22;;;-1.15;95.41
56668;BME280;42542;48.360;10.958;2023-01-27T03:32:51;96152.19;;;-1.20;94.82
56668;BME280;42542;48.360;10.958;2023-01-27T03:36:17;96162.50;;;-1.17;94.22
56668;BME280;42542;48.360;10.958;2023-01-27T03:39:38;96160.88;;;-1.20;94.30
56668;BME280;42542;48.360;10.958;2023-01-27T03:42:59;96168.13;;;-1.23;94.56
56668;BME280;42542;48.360;10.958;2023-01-27T03:46:20;96168.94;;;-1.23;94.09
56668;BME280;42542;48.360;10.958;2023-01-27T03:49:22;96168.13;;;-1.23;94.32
56668;BME280;42542;48.360;10.958;2023-01-27T03:52:24;96172.31;;;-1.21;94.50
56668;BME280;42542;48.360;10.958;2023-01-27T03:55:26;96179.31;;;-1.21;94.58
56668;BME280;42542;48.360;10.958;2023-01-27T03:58:35;96174.94;;;-1.21;94.51
56668;BME280;42542;48.360;10.958;2023-01-27T04:01:38;96167.75;;;-1.17;94.82
56668;BME280;42542;48.360;10.958;2023-01-27T04:04:40;96168.59;;;-1.16;94.09
56668;BME280;42542;48.360;10.958;2023-01-27T04:08:00;96170.28;;;-1.15;94.20
56668;BME280;42542;48.360;10.958;2023-01-27T04:11:03;96160.25;;;-1.23;93.92
56668;BME280;42542;48.360;10.958;2023-01-27T04:14:38;96166.69;;;-1.14;93.92
56668;BME280;42542;48.360;10.958;2023-01-27T04:17:42;96158.72;;;-1.13;93.63
56668;BME280;42542;48.360;10.958;2023-01-27T04:20:44;96175.31;;;-1.12;93.88
56668;BME280;42542;48.360;10.958;2023-01-27T04:23:46;96177.84;;;-1.11;94.21
56668;BME280;42542;48.360;10.958;2023-01-27T04:26:53;96159.03;;;-1.17;94.24
56668;BME280;42542;48.360;10.958;2023-01-27T04:29:56;96160.25;;;-1.09;94.77
56668;BME280;42542;48.360;10.958;2023-01-27T04:32:58;96167.16;;;-1.08;94.43
56668;BME280;42542;48.360;10.958;2023-01-27T04:36:06;96160.34;;;-1.10;94.42
56668;BME280;42542;48.360;10.958;2023-01-27T04:39:08;96168.97;;;-1.08;93.96
56668;BME280;42542;48.360;10.958;2023-01-27T04:42:11;96176.72;;;-1.07;94.72
56668;BME280;42542;48.360;10.958;2023-01-27T04:45:13;96175.78;;;-1.06;94.10
56668;BME280;42542;48.360;10.958;2023-01-27T04:48:16;96180.09;;;-1.05;94.54
56668;BME280;42542;48.360;10.958;2023-01-27T04:51:18;96178.41;;;-1.06;94.48
56668;BME280;42542;48.360;10.958;2023-01-27T04:54:20;96181.03;;;-1.06;94.41
56668;BME280;42542;48.360;10.958;2023-01-27T04:57:22;96174.09;;;-1.07;94.21
56668;BME280;42542;48.360;10.958;2023-01-27T05:00:24;96179.34;;;-1.07;94.25
56668;BME280;42542;48.360;10.958;2023-01-27T05:03:26;96185.44;;;-1.06;94.56
56668;BME280;42542;48.360;10.958;2023-01-27T05:06:28;96186.56;;;-1.10;94.40
56668;BME280;42542;48.360;10.958;2023-01-27T05:09:30;96177.94;;;-1.12;94.27
56668;BME280;42542;48.360;10.958;2023-01-27T05:12:32;96172.78;;;-1.14;94.21
56668;BME280;42542;48.360;10.958;2023-01-27T05:15:34;96169.31;;;-1.14;94.02
56668;BME280;42542;48.360;10.958;2023-01-27T05:18:38;96171.09;;;-1.15;94.28
56668;BME280;42542;48.360;10.958;2023-01-27T05:21:40;96167.81;;;-1.19;94.03
56668;BME280;42542;48.360;10.958;2023-01-27T05:24:44;96150.69;;;-1.24;94.60
56668;BME280;42542;48.360;10.958;2023-01-27T05:27:45;96169.50;;;-1.17;94.47
56668;BME280;42542;48.360;10.958;2023-01-27T05:30:47;96166.81;;;-1.16;94.31
56668;BME280;42542;48.360;10.958;2023-01-27T05:33:51;96170.28;;;-1.15;94.79
56668;BME280;42542;48.360;10.958;2023-01-27T05:36:54;96179.72;;;-1.13;94.73
56668;BME280;42542;48.360;10.958;2023-01-27T05:39:55;96190.13;;;-1.11;94.77
56668;BME280;42542;48.360;10.958;2023-01-27T05:42:57;96191.81;;;-1.10;94.87
56668;BME280;42542;48.360;10.958;2023-01-27T05:46:07;96192.56;;;-1.08;95.08
56668;BME280;42542;48.360;10.958;2023-01-27T05:49:09;96193.50;;;-1.09;94.97
56668;BME280;42542;48.360;10.958;2023-01-27T05:52:11;96201.47;;;-1.11;94.85
56668;BME280;42542;48.360;10.958;2023-01-27T05:55:13;96201.38;;;-1.09;95.30
56668;BME280;42542;48.360;10.958;2023-01-27T05:58:15;96208.41;;;-1.10;94.98
56668;BME280;42542;48.360;10.958;2023-01-27T06:01:21;96210.19;;;-1.10;95.14
56668;BME280;42542;48.360;10.958;2023-01-27T06:04:23;96212.13;;;-1.14;95.30
56668;BME280;42542;48.360;10.958;2023-01-27T06:07:25;96213.81;;;-1.13;95.60
56668;BME280;42542;48.360;10.958;2023-01-27T06:10:27;96216.63;;;-1.16;95.31
56668;BME280;42542;48.360;10.958;2023-01-27T06:13:30;96224.38;;;-1.14;95.48
56668;BME280;42542;48.360;10.958;2023-01-27T06:16:32;96226.16;;;-1.15;95.46
56668;BME280;42542;48.360;10.958;2023-01-27T06:19:35;96226.94;;;-1.13;95.61
56668;BME280;42542;48.360;10.958;2023-01-27T06:22:36;96225.06;;;-1.11;95.77
56668;BME280;42542;48.360;10.958;2023-01-27T06:25:46;96234.63;;;-1.10;95.48
56668;BME280;42542;48.360;10.958;2023-01-27T06:28:48;96230.09;;;-1.08;95.68
56668;BME280;42542;48.360;10.958;2023-01-27T06:31:50;96231.72;;;-1.05;95.78
56668;BME280;42542;48.360;10.958;2023-01-27T06:34:52;96228.06;;;-1.03;95.90
56668;BME280;42542;48.360;10.958;2023-01-27T06:37:59;96235.88;;;-1.01;95.41
56668;BME280;42542;48.360;10.958;2023-01-27T06:41:01;96230.41;;;-0.98;95.47
56668;BME280;42542;48.360;10.958;2023-01-27T06:44:03;96232.28;;;-1.00;95.33
56668;BME280;42542;48.360;10.958;2023-01-27T06:47:04;96233.13;;;-1.00;95.11
56668;BME280;42542;48.360;10.958;2023-01-27T06:50:08;96232.41;;;-1.02;94.88
56668;BME280;42542;48.360;10.958;2023-01-27T06:53:10;96235.66;;;-0.98;94.79
56668;BME280;42542;48.360;10.958;2023-01-27T06:56:12;96245.22;;;-0.97;94.57
56668;BME280;42542;48.360;10.958;2023-01-27T06:59:16;96249.53;;;-0.96;94.83
56668;BME280;42542;48.360;10.958;2023-01-27T07:02:18;96248.78;;;-0.98;94.97
56668;BME280;42542;48.360;10.958;2023-01-27T07:05:20;96254.88;;;-0.98;94.41
56668;BME280;42542;48.360;10.958;2023-01-27T07:08:23;96265.09;;;-0.93;94.77
56668;BME280;42542;48.360;10.958;2023-01-27T07:11:24;96265.94;;;-0.93;94.86
56668;BME280;42542;48.360;10.958;2023-01-27T07:14:27;96276.25;;;-0.90;94.98
56668;BME280;42542;48.360;10.958;2023-01-27T07:17:28;96281.50;;;-0.90;95.01
56668;BME280;42542;48.360;10.958;2023-01-27T07:20:30;96284.03;;;-0.88;94.58
56668;BME280;42542;48.360;10.958;2023-01-27T07:23:33;96278.97;;;-0.91;94.57
56668;BME280;42542;48.360;10.958;2023-01-27T07:26:34;96296.22;;;-0.87;94.53
56668;BME280;42542;48.360;10.958;2023-01-27T07:29:37;96295.25;;;-0.86;94.59
56668;BME280;42542;48.360;10.958;2023-01-27T07:32:38;96279.53;;;-0.86;94.85
56668;BME280;42542;48.360;10.958;2023-01-27T07:35:40;96284.53;;;-0.82;94.95
56668;BME280;42542;48.360;10.958;2023-01-27T07:38:43;96271.56;;;-0.85;94.72
56668;BME280;42542;48.360;10.958;2023-01-27T07:41:47;96263.59;;;-0.83;94.40
56668;BME280;42542;48.360;10.958;2023-01-27T07:44:49;96276.44;;;-0.79;94.30
56668;BME280;42542;48.360;10.958;2023-01-27T07:47:50;96281.81;;;-0.80;94.33
56668;BME280;42542;48.360;10.958;2023-01-27T07:50:52;96280.03;;;-0.80;94.46
56668;BME280;42542;48.360;10.958;2023-01-27T07:53:54;96276.34;;;-0.77;93.94
56668;BME280;42542;48.360;10.958;2023-01-27T07:56:58;96270.25;;;-0.77;93.86
56668;BME280;42542;48.360;10.958;2023-01-27T08:00:01;96268.56;;;-0.79;94.07
56668;BME280;42542;48.360;10.958;2023-01-27T08:03:23;96267.72;;;-0.79;93.65
56668;BME280;42542;48.360;10.958;2023-01-27T08:06:27;96264.28;;;-0.80;93.98
56668;BME280;42542;48.360;10.958;2023-01-27T08:09:29;96274.94;;;-0.83;93.43
56668;BME280;42542;48.360;10.958;2023-01-27T08:12:31;96270.72;;;-0.85;93.58
56668;BME280;42542;48.360;10.958;2023-01-27T08:15:33;96274.09;;;-0.83;93.82
56668;BME280;42542;48.360;10.958;2023-01-27T08:18:35;96275.97;;;-0.85;93.75
56668;BME280;42542;48.360;10.958;2023-01-27T08:21:37;96278.59;;;-0.85;93.76
56668;BME280;42542;48.360;10.958;2023-01-27T08:24:39;96273.72;;;-0.91;93.43
56668;BME280;42542;48.360;10.958;2023-01-27T08:27:41;96279.44;;;-0.85;93.54
56668;BME280;42542;48.360;10.958;2023-01-27T08:30:43;96272.41;;;-0.84;93.69
56668;BME280;42542;48.360;10.958;2023-01-27T08:33:50;96262.84;;;-0.85;94.16
56668;BME280;42542;48.360;10.958;2023-01-27T08:36:53;96265.75;;;-0.90;93.91
56668;BME280;42542;48.360;10.958;2023-01-27T08:39:54;96287.16;;;-0.82;93.83
56668;BME280;42542;48.360;10.958;2023-01-27T08:42:56;96293.16;;;-0.80;93.66
56668;BME280;42542;48.360;10.958;2023-01-27T08:45:58;96281.69;;;-0.79;93.95
56668;BME280;42542;48.360;10.958;2023-01-27T08:49:01;96286.09;;;-0.79;93.65
56668;BME280;42542;48.360;10.958;2023-01-27T08:52:03;96286.22;;;-0.81;93.23
56668;BME280;42542;48.360;10.958;2023-01-27T08:55:06;96300.19;;;-0.80;93.72
56668;BME280;42542;48.360;10.958;2023-01-27T08:58:09;96301.97;;;-0.81;94.08
56668;BME280;42542;48.360;10.958;2023-01-27T09:01:11;96314.97;;;-0.79;93.94
56668;BME280;42542;48.360;10.958;2023-01-27T09:04:12;96312.44;;;-0.81;94.32
56668;BME280;42542;48.360;10.958;2023-01-27T09:07:17;96299.34;;;-0.81;94.54
56668;BME280;42542;48.360;10.958;2023-01-27T09:10:19;96301.19;;;-0.83;94.62
56668;BME280;42542;48.360;10.958;2023-01-27T09:13:20;96312.53;;;-0.82;94.61
56668;BME280;42542;48.360;10.958;2023-01-27T09:16:25;96316.00;;;-0.82;95.37
56668;BME280;42542;48.360;10.958;2023-01-27T09:19:28;96311.69;;;-0.83;95.82
56668;BME280;42542;48.360;10.958;2023-01-27T09:22:30;96306.44;;;-0.83;96.35
56668;BME280;42542;48.360;10.958;2023-01-27T09:25:31;96319.47;;;-0.81;96.20
56668;BME280;42542;48.360;10.958;2023-01-27T09:28:34;96306.44;;;-0.83;96.03
56668;BME280;42542;48.360;10.958;2023-01-27T09:31:35;96314.22;;;-0.81;96.98
56668;BME280;42542;48.360;10.958;2023-01-27T09:34:38;96317.59;;;-0.79;96.50
56668;BME280;42542;48.360;10.958;2023-01-27T09:37:50;96312.63;;;-0.84;96.79
56668;BME280;42542;48.360;10.958;2023-01-27T09:44:36;96331.66;;;-0.80;97.41
56668;BME280;42542;48.360;10.958;2023-01-27T09:51:01;96341.03;;;-0.76;97.01
56668;BME280;42542;48.360;10.958;2023-01-27T09:57:37;96339.81;;;-0.70;97.01
56668;BME280;42542;48.360;10.958;2023-01-27T10:00:56;96339.81;;;-0.70;97.24
56668;BME280;42542;48.360;10.958;2023-01-27T10:04:27;96330.84;;;-0.66;96.74
56668;BME280;42542;48.360;10.958;2023-01-27T10:07:49;96338.53;;;-0.63;96.72
56668;BME280;42542;48.360;10.958;2023-01-27T10:21:19;96342.22;;;-0.52;96.03
56668;BME280;42542;48.360;10.958;2023-01-27T10:27:55;96327.31;;;-0.51;94.84
56668;BME280;42542;48.360;10.958;2023-01-27T10:31:06;96327.31;;;-0.51;94.61
56668;BME280;42542;48.360;10.958;2023-01-27T10:34:28;96332.56;;;-0.51;94.71
56668;BME280;42542;48.360;10.958;2023-01-27T10:37:45;96328.25;;;-0.52;95.16
56668;BME280;42542;48.360;10.958;2023-01-27T10:41:02;96326.25;;;-0.49;94.84
56668;BME280;42542;48.360;10.958;2023-01-27T10:50:43;96324.47;;;-0.48;93.80
56668;BME280;42542;48.360;10.958;2023-01-27T10:57:08;96321.84;;;-0.48;94.51
56668;BME280;42542;48.360;10.958;2023-01-27T11:03:40;96337.25;;;-0.42;92.88
56668;BME280;42542;48.360;10.958;2023-01-27T11:06:45;96339.78;;;-0.41;93.70
56668;BME280;42542;48.360;10.958;2023-01-27T11:09:55;96344.94;;;-0.39;93.02
56668;BME280;42542;48.360;10.958;2023-01-27T11:12:59;96347.38;;;-0.36;93.15
56668;BME280;42542;48.360;10.958;2023-01-27T11:16:05;96342.88;;;-0.34;92.61
56668;BME280;42542;48.360;10.958;2023-01-27T11:23:00;96332.84;;;-0.27;93.47
56668;BME280;42542;48.360;10.958;2023-01-27T11:26:29;96337.16;;;-0.26;93.16
56668;BME280;42542;48.360;10.958;2023-01-27T11:29:50;96332.75;;;-0.26;93.08
56668;BME280;42542;48.360;10.958;2023-01-27T11:35:57;96333.22;;;-0.33;92.29
56668;BME280;42542;48.360;10.958;2023-01-27T11:38:58;96336.31;;;-0.41;91.75
56668;BME280;42542;48.360;10.958;2023-01-27T11:42:02;96331.91;;;-0.41;92.00
56668;BME280;42542;48.360;10.958;2023-01-27T11:45:04;96329.19;;;-0.39;92.41
56668;BME280;42542;48.360;10.958;2023-01-27T11:48:10;96328.50;;;-0.43;92.19
56668;BME280;42542;48.360;10.958;2023-01-27T11:51:20;96325.16;;;-0.45;92.08
56668;BME280;42542;48.360;10.958;2023-01-27T11:54:24;96318.38;;;-0.49;93.21
56668;BME280;42542;48.360;10.958;2023-01-27T11:57:28;96333.31;;;-0.35;93.85
56668;BME280;42542;48.360;10.958;2023-01-27T12:00:37;96330.41;;;-0.30;93.58
56668;BME280;42542;48.360;10.958;2023-01-27T12:03:53;96334.63;;;-0.28;93.08
56668;BME280;42542;48.360;10.958;2023-01-27T12:07:03;96335.22;;;-0.23;93.26
56668;BME280;42542;48.360;10.958;2023-01-27T12:13:32;96324.13;;;-0.14;93.12
56668;BME280;42542;48.360;10.958;2023-01-27T12:19:42;96318.78;;;-0.12;92.03
56668;BME280;42542;48.360;10.958;2023-01-27T12:22:45;96315.03;;;-0.08;92.51
56668;BME280;42542;48.360;10.958;2023-01-27T12:25:55;96311.25;;;-0.04;92.30
56668;BME280;42542;48.360;10.958;2023-01-27T12:29:03;96302.44;;;-0.03;92.00
56668;BME280;42542;48.360;10.958;2023-01-27T12:32:21;96296.16;;;-0.01;92.39
56668;BME280;42542;48.360;10.958;2023-01-27T12:35:28;96292.56;;;0.00;92.61
56668;BME280;42542;48.360;10.958;2023-01-27T12:38:34;96291.19;;;-0.05;91.93
56668;BME280;42542;48.360;10.958;2023-01-27T12:41:36;96294.75;;;-0.06;91.65
56668;BME280;42542;48.360;10.958;2023-01-27T12:44:41;96289.78;;;-0.11;91.98
56668;BME280;42542;48.360;10.958;2023-01-27T12:51:21;96287.78;;;-0.07;92.86
56668;BME280;42542;48.360;10.958;2023-01-27T12:54:27;96293.81;;;-0.05;91.92
56668;BME280;42542;48.360;10.958;2023-01-27T12:57:30;96288.47;;;-0.04;92.02
56668;BME280;42542;48.360;10.958;2023-01-27T13:00:33;96289.13;;;0.00;92.59
56668;BME280;42542;48.360;10.958;2023-01-27T13:03:38;96283.66;;;0.03;92.85
56668;BME280;42542;48.360;10.958;2023-01-27T13:06:54;96282.72;;;0.04;92.27
56668;BME280;42542;48.360;10.958;2023-01-27T13:10:02;96274.75;;;0.06;92.37
56668;BME280;42542;48.360;10.958;2023-01-27T13:13:17;96278.00;;;0.09;92.06
56668;BME280;42542;48.360;10.958;2023-01-27T13:16:28;96279.06;;;0.07;91.96
56668;BME280;42542;48.360;10.958;2023-01-27T13:19:42;96283.19;;;0.11;92.12
56668;BME280;42542;48.360;10.958;2023-01-27T13:26:17;96276.78;;;0.15;92.54
56668;BME280;42542;48.360;10.958;2023-01-27T13:29:24;96287.19;;;0.16;92.81
56668;BME280;42542;48.360;10.958;2023-01-27T13:32:30;96287.41;;;0.13;92.33
56668;BME280;42542;48.360;10.958;2023-01-27T13:35:36;96283.19;;;0.11;91.54
56668;BME280;42542;48.360;10.958;2023-01-27T13:38:51;96279.16;;;0.05;92.20
56668;BME280;42542;48.360;10.958;2023-01-27T13:45:24;96293.06;;;0.07;92.88
56668;BME280;42542;48.360;10.958;2023-01-27T13:48:37;96286.97;;;0.07;93.00
56668;BME280;42542;48.360;10.958;2023-01-27T13:51:42;96294.00;;;0.06;93.63
56668;BME280;42542;48.360;10.958;2023-01-27T13:54:43;96285.19;;;0.07;93.57
56668;BME280;42542;48.360;10.958;2023-01-27T13:58:05;96278.22;;;0.06;93.21
56668;BME280;42542;48.360;10.958;2023-01-27T14:01:18;96285.81;;;0.11;93.08
56668;BME280;42542;48.360;10.958;2023-01-27T14:04:36;96283.19;;;0.11;92.48
56668;BME280;42542;48.360;10.958;2023-01-27T14:07:53;96294.63;;;0.10;92.51
56668;BME280;42542;48.360;10.958;2023-01-27T14:11:28;96292.00;;;0.10;92.95
56668;BME280;42542;48.360;10.958;2023-01-27T14:18:04;96293.16;;;0.06;92.71
56668;BME280;42542;48.360;10.958;2023-01-27T14:24:56;96301.56;;;0.11;92.61
56668;BME280;42542;48.360;10.958;2023-01-27T14:28:27;96307.50;;;0.14;93.16
56668;BME280;42542;48.360;10.958;2023-01-27T14:38:29;96313.69;;;0.13;91.99
56668;BME280;42542;48.360;10.958;2023-01-27T14:45:22;96314.72;;;0.11;91.59
56668;BME280;42542;48.360;10.958;2023-01-27T14:51:45;96324.59;;;0.07;92.52
56668;BME280;42542;48.360;10.958;2023-01-27T15:01:53;96328.25;;;0.05;91.92
56668;BME280;42542;48.360;10.958;2023-01-27T15:18:27;96336.22;;;-0.11;92.46
56668;BME280;42542;48.360;10.958;2023-01-27T15:27:58;96365.22;;;-0.13;92.72
56668;BME280;42542;48.360;10.958;2023-01-27T15:34:21;96371.31;;;-0.12;93.07
56668;BME280;42542;48.360;10.958;2023-01-27T15:37:25;96368.59;;;-0.11;92.80
56668;BME280;42542;48.360;10.958;2023-01-27T15:40:28;96375.81;;;-0.14;93.03
56668;BME280;42542;48.360;10.958;2023-01-27T15:43:30;96372.25;;;-0.13;93.51
56668;BME280;42542;48.360;10.958;2023-01-27T15:46:35;96372.44;;;-0.16;93.26
56668;BME280;42542;48.360;10.958;2023-01-27T15:49:47;96376.84;;;-0.17;92.64
56668;BME280;42542;48.360;10.958;2023-01-27T15:52:49;96375.34;;;-0.21;93.14
56668;BME280;42542;48.360;10.958;2023-01-27T15:55:53;96378.81;;;-0.20;92.63
56668;BME280;42542;48.360;10.958;2023-01-27T15:58:58;96371.78;;;-0.20;93.25
56668;BME280;42542;48.360;10.958;2023-01-27T16:02:16;96371.88;;;-0.21;93.10
56668;BME280;42542;48.360;10.958;2023-01-27T16:05:26;96381.63;;;-0.23;93.13
56668;BME280;42542;48.360;10.958;2023-01-27T16:08:31;96372.91;;;-0.24;93.24
56668;BME280;42542;48.360;10.958;2023-01-27T16:11:40;96375.47;;;-0.22;93.76
56668;BME280;42542;48.360;10.958;2023-01-27T16:14:43;96368.41;;;-0.22;93.94
56668;BME280;42542;48.360;10.958;2023-01-27T16:21:03;96375.47;;;-0.22;93.46
56668;BME280;42542;48.360;10.958;2023-01-27T16:27:46;96382.50;;;-0.23;94.11
56668;BME280;42542;48.360;10.958;2023-01-27T16:31:02;96384.25;;;-0.23;94.41
56668;BME280;42542;48.360;10.958;2023-01-27T16:34:16;96387.75;;;-0.23;94.12
56668;BME280;42542;48.360;10.958;2023-01-27T16:37:23;96392.16;;;-0.23;94.73
56668;BME280;42542;48.360;10.958;2023-01-27T16:40:26;96392.06;;;-0.22;94.71
56668;BME280;42542;48.360;10.958;2023-01-27T16:43:40;96397.31;;;-0.22;95.27
56668;BME280;42542;48.360;10.958;2023-01-27T16:46:53;96387.75;;;-0.23;95.42
56668;BME280;42542;48.360;10.958;2023-01-27T16:49:58;96387.06;;;-0.26;95.27
56668;BME280;42542;48.360;10.958;2023-01-27T16:53:02;96391.38;;;-0.25;95.26
56668;BME280;42542;48.360;10.958;2023-01-27T16:56:06;96390.53;;;-0.26;95.37
56668;BME280;42542;48.360;10.958;2023-01-27T16:59:23;96389.78;;;-0.28;95.58
56668;BME280;42542;48.360;10.958;2023-01-27T17:02:28;96391.56;;;-0.28;95.28
56668;BME280;42542;48.360;10.958;2023-01-27T17:05:32;96398.50;;;-0.27;95.90
56668;BME280;42542;48.360;10.958;2023-01-27T17:08:42;96397.41;;;-0.23;97.20
56668;BME280;42542;48.360;10.958;2023-01-27T17:11:44;96403.66;;;-0.26;96.13
56668;BME280;42542;48.360;10.958;2023-01-27T17:14:46;96396.81;;;-0.28;96.31
56668;BME280;42542;48.360;10.958;2023-01-27T17:17:48;96402.81;;;-0.26;96.57
56668;BME280;42542;48.360;10.958;2023-01-27T17:20:50;96403.66;;;-0.26;96.63
56668;BME280;42542;48.360;10.958;2023-01-27T17:23:58;96401.72;;;-0.22;98.00
56668;BME280;42542;48.360;10.958;2023-01-27T17:27:08;96409.22;;;-0.16;99.29
56668;BME280;42542;48.360;10.958;2023-01-27T17:30:20;96411.84;;;-0.16;99.10
56668;BME280;42542;48.360;10.958;2023-01-27T17:33:24;96413.72;;;-0.18;97.55
56668;BME280;42542;48.360;10.958;2023-01-27T17:36:26;96413.16;;;-0.23;97.24
56668;BME280;42542;48.360;10.958;2023-01-27T17:39:27;96412.41;;;-0.25;96.68
56668;BME280;42542;48.360;10.958;2023-01-27T17:42:31;96416.25;;;-0.31;96.47
56668;BME280;42542;48.360;10.958;2023-01-27T17:45:33;96419.72;;;-0.30;96.60
56668;BME280;42542;48.360;10.958;2023-01-27T17:48:38;96417.09;;;-0.30;97.07
56668;BME280;42542;48.360;10.958;2023-01-27T17:51:44;96419.22;;;-0.37;96.68
56668;BME280;42542;48.360;10.958;2023-01-27T17:54:47;96431.53;;;-0.37;96.42
56668;BME280;42542;48.360;10.958;2023-01-27T17:57:56;96435.16;;;-0.40;96.92
56668;BME280;42542;48.360;10.958;2023-01-27T18:00:59;96435.44;;;-0.45;96.20
56668;BME280;42542;48.360;10.958;2023-01-27T18:04:03;96435.69;;;-0.49;95.42
56668;BME280;42542;48.360;10.958;2023-01-27T18:07:08;96435.97;;;-0.54;95.46
56668;BME280;42542;48.360;10.958;2023-01-27T18:10:25;96436.97;;;-0.56;95.50
56668;BME280;42542;48.360;10.958;2023-01-27T18:16:29;96448.69;;;-0.62;95.27